createdAt,value
2017-07-20T00:00:22.073Z,0
2017-07-20T00:01:22.120Z,0
2017-07-20T00:02:21.785Z,0
2017-07-20T00:03:21.780Z,0
2017-07-20T00:04:22.079Z,0
2017-07-20T00:05:22.355Z,0
2017-07-20T00:06:22.058Z,0
2017-07-20T00:07:21.766Z,0
2017-07-20T00:08:22.082Z,0
2017-07-20T00:09:22.091Z,0
2017-07-20T00:10:22.322Z,0
2017-07-20T00:11:21.750Z,0
2017-07-20T00:12:22.074Z,0
2017-07-20T00:13:22.103Z,0
2017-07-20T00:14:22.055Z,0
2017-07-20T00:15:22.001Z,0
2017-07-20T00:16:22.073Z,0
2017-07-20T00:17:21.748Z,0
2017-07-20T00:18:22.060Z,0
2017-07-20T00:19:22.074Z,0
2017-07-20T00:20:22.370Z,0
2017-07-20T00:21:22.069Z,0
2017-07-20T00:22:22.045Z,0
2017-07-20T00:23:21.744Z,0
2017-07-20T00:24:22.041Z,0
2017-07-20T00:25:21.708Z,0
2017-07-20T00:26:21.737Z,0
2017-07-20T00:27:22.050Z,0
2017-07-20T00:28:21.721Z,0
2017-07-20T00:29:22.042Z,0
2017-07-20T00:30:22.300Z,0
2017-07-20T00:31:21.725Z,0
2017-07-20T00:32:21.429Z,0
2017-07-20T00:33:22.022Z,0
2017-07-20T00:34:21.720Z,0
2017-07-20T00:35:22.304Z,0
2017-07-20T00:36:22.037Z,0
2017-07-20T00:37:21.694Z,0
2017-07-20T00:38:22.027Z,0
2017-07-20T00:39:21.381Z,0
2017-07-20T00:40:22.320Z,0
2017-07-20T00:41:22.009Z,0
2017-07-20T00:42:21.696Z,0
2017-07-20T00:43:21.713Z,0
2017-07-20T00:44:22.003Z,0
2017-07-20T00:45:22.342Z,0
2017-07-20T00:46:22.012Z,0
2017-07-20T00:47:22.000Z,0
2017-07-20T00:48:22.013Z,0
2017-07-20T00:49:21.698Z,0
2017-07-20T00:50:21.964Z,0
2017-07-20T00:51:21.686Z,0
2017-07-20T00:52:21.983Z,0
2017-07-20T00:53:21.368Z,0
2017-07-20T00:54:21.689Z,0
2017-07-20T00:55:22.237Z,0
2017-07-20T00:56:21.669Z,0
2017-07-20T00:57:21.975Z,0
2017-07-20T00:58:21.972Z,0
2017-07-20T00:59:21.673Z,0
2017-07-20T01:00:22.204Z,0
2017-07-20T01:01:21.989Z,0
2017-07-20T01:02:21.959Z,0
2017-07-20T01:03:21.341Z,0
2017-07-20T01:04:21.653Z,0
2017-07-20T01:05:22.262Z,0
2017-07-20T01:06:21.964Z,0
2017-07-20T01:07:21.652Z,0
2017-07-20T01:08:21.947Z,0
2017-07-20T01:09:21.929Z,0
2017-07-20T01:10:22.255Z,0
2017-07-20T01:11:21.950Z,0
2017-07-20T01:12:21.640Z,0
2017-07-20T01:13:21.935Z,0
2017-07-20T01:14:20.999Z,0
2017-07-20T01:15:21.882Z,0
2017-07-20T01:16:21.621Z,0
2017-07-20T01:17:21.923Z,0
2017-07-20T01:18:21.959Z,0
2017-07-20T01:19:21.617Z,0
2017-07-20T01:20:22.252Z,0
2017-07-20T01:21:21.937Z,0
2017-07-20T01:22:21.940Z,0
2017-07-20T01:23:21.895Z,0
2017-07-20T01:24:21.909Z,0
2017-07-20T01:25:22.236Z,0
2017-07-20T01:26:21.615Z,0
2017-07-20T01:27:21.292Z,0
2017-07-20T01:28:21.908Z,0
2017-07-20T01:29:21.901Z,0
2017-07-20T01:30:21.859Z,0
2017-07-20T01:31:21.891Z,0
2017-07-20T01:32:21.892Z,0
2017-07-20T01:33:21.566Z,0
2017-07-20T01:34:21.907Z,0
2017-07-20T01:35:22.122Z,0
2017-07-20T01:36:21.930Z,0
2017-07-20T01:37:21.875Z,0
2017-07-20T01:38:21.898Z,0
2017-07-20T01:39:21.871Z,0
2017-07-20T01:40:22.134Z,0
2017-07-20T01:41:21.876Z,0
2017-07-20T01:42:21.258Z,0
2017-07-20T01:43:21.566Z,0
2017-07-20T01:44:21.259Z,0
2017-07-20T01:45:22.175Z,0
2017-07-20T01:46:21.864Z,0
2017-07-20T01:47:21.254Z,0
2017-07-20T01:48:21.560Z,0
2017-07-20T01:49:21.887Z,0
2017-07-20T01:50:21.796Z,0
2017-07-20T01:51:21.869Z,0
2017-07-20T01:52:21.867Z,0
2017-07-20T01:53:21.856Z,0
2017-07-20T01:54:21.833Z,0
2017-07-20T01:55:21.801Z,0
2017-07-20T01:56:21.832Z,0
2017-07-20T01:57:21.832Z,0
2017-07-20T01:58:21.857Z,0
2017-07-20T01:59:21.852Z,0
2017-07-20T02:00:22.150Z,0
2017-07-20T02:01:21.528Z,0
2017-07-20T02:02:21.811Z,0
2017-07-20T02:03:21.834Z,0
2017-07-20T02:04:21.840Z,0
2017-07-20T02:05:22.145Z,0
2017-07-20T02:06:21.197Z,0
2017-07-20T02:07:21.840Z,0
2017-07-20T02:08:21.798Z,0
2017-07-20T02:09:21.822Z,0
2017-07-20T02:10:22.070Z,0
2017-07-20T02:11:21.519Z,0
2017-07-20T02:12:21.822Z,0
2017-07-20T02:13:21.802Z,0
2017-07-20T02:14:21.782Z,0
2017-07-20T02:15:21.738Z,0
2017-07-20T02:16:21.499Z,0
2017-07-20T02:17:21.815Z,0
2017-07-20T02:18:21.813Z,0
2017-07-20T02:19:21.793Z,0
2017-07-20T02:20:21.729Z,0
2017-07-20T02:21:21.505Z,0
2017-07-20T02:22:21.790Z,0
2017-07-20T02:23:21.791Z,0
2017-07-20T02:24:21.467Z,0
2017-07-20T02:25:22.026Z,0
2017-07-20T02:26:21.776Z,0
2017-07-20T02:27:21.781Z,0
2017-07-20T02:28:21.774Z,0
2017-07-20T02:29:21.494Z,0
2017-07-20T02:30:22.071Z,0
2017-07-20T02:31:21.762Z,0
2017-07-20T02:32:21.789Z,0
2017-07-20T02:33:21.775Z,0
2017-07-20T02:34:21.472Z,0
2017-07-20T02:35:22.107Z,0
2017-07-20T02:36:21.753Z,0
2017-07-20T02:37:21.747Z,0
2017-07-20T02:38:21.770Z,0
2017-07-20T02:39:21.439Z,0
2017-07-20T02:40:22.082Z,0
2017-07-20T02:41:21.748Z,0
2017-07-20T02:42:21.771Z,0
2017-07-20T02:43:21.434Z,0
2017-07-20T02:44:21.751Z,0
2017-07-20T02:45:21.988Z,0
2017-07-20T02:46:21.757Z,0
2017-07-20T02:47:21.738Z,0
2017-07-20T02:48:21.761Z,0
2017-07-20T02:49:21.439Z,0
2017-07-20T02:50:21.374Z,0
2017-07-20T02:51:21.431Z,0
2017-07-20T02:52:21.749Z,0
2017-07-20T02:53:21.725Z,0
2017-07-20T02:54:21.749Z,0
2017-07-20T02:55:21.977Z,0
2017-07-20T02:56:21.433Z,0
2017-07-20T02:57:21.717Z,0
2017-07-20T02:58:21.738Z,0
2017-07-20T02:59:21.705Z,0
2017-07-20T03:00:21.718Z,0
2017-07-20T03:01:21.421Z,0
2017-07-20T03:02:21.377Z,0
2017-07-20T03:03:21.390Z,0
2017-07-20T03:04:21.091Z,0
2017-07-20T03:05:21.970Z,0
2017-07-20T03:06:21.705Z,0
2017-07-20T03:07:21.699Z,0
2017-07-20T03:08:21.389Z,0
2017-07-20T03:09:21.692Z,0
2017-07-20T03:10:22.053Z,0
2017-07-20T03:11:21.423Z,5
2017-07-20T03:12:21.688Z,5
2017-07-20T03:13:21.392Z,5
2017-07-20T03:14:21.364Z,5
2017-07-20T03:15:21.943Z,5
2017-07-20T03:16:21.375Z,5
2017-07-20T03:17:21.687Z,5
2017-07-20T03:18:21.356Z,5
2017-07-20T03:19:21.684Z,5
2017-07-20T03:20:21.937Z,5
2017-07-20T03:21:21.670Z,5
2017-07-20T03:22:21.356Z,5
2017-07-20T03:23:21.675Z,5
2017-07-20T03:24:21.666Z,10
2017-07-20T03:25:21.978Z,10
2017-07-20T03:26:21.665Z,15
2017-07-20T03:27:21.673Z,15
2017-07-20T03:28:21.361Z,20
2017-07-20T03:29:21.649Z,20
2017-07-20T03:30:21.677Z,25
2017-07-20T03:31:21.638Z,25
2017-07-20T03:32:21.647Z,30
2017-07-20T03:33:21.651Z,30
2017-07-20T03:34:21.358Z,30
2017-07-20T03:35:21.911Z,35
2017-07-20T03:36:21.638Z,40
2017-07-20T03:37:21.320Z,40
2017-07-20T03:38:21.644Z,45
2017-07-20T03:39:21.634Z,50
2017-07-20T03:40:21.034Z,50
2017-07-20T03:41:21.597Z,55
2017-07-20T03:42:21.668Z,55
2017-07-20T03:43:21.637Z,55
2017-07-20T03:44:21.029Z,55
2017-07-20T03:45:20.993Z,60
2017-07-20T03:46:21.935Z,60
2017-07-20T03:47:21.312Z,60
2017-07-20T03:48:21.302Z,60
2017-07-20T03:49:20.996Z,60
2017-07-20T03:50:21.316Z,65
2017-07-20T03:51:21.864Z,70
2017-07-20T03:52:20.986Z,70
2017-07-20T03:53:21.597Z,75
2017-07-20T03:54:21.290Z,75
2017-07-20T03:55:21.628Z,80
2017-07-20T03:56:21.853Z,85
2017-07-20T03:57:21.609Z,90
2017-07-20T03:58:21.276Z,95
2017-07-20T03:59:21.295Z,100
2017-07-20T04:00:21.280Z,105
2017-07-20T04:01:21.544Z,105
2017-07-20T04:02:21.579Z,105
2017-07-20T04:03:21.287Z,110
2017-07-20T04:04:21.274Z,105
2017-07-20T04:05:21.256Z,115
2017-07-20T04:06:21.534Z,120
2017-07-20T04:07:21.278Z,125
2017-07-20T04:08:21.586Z,130
2017-07-20T04:09:21.252Z,130
2017-07-20T04:10:21.242Z,130
2017-07-20T04:11:21.890Z,135
2017-07-20T04:12:20.955Z,135
2017-07-20T04:13:20.963Z,140
2017-07-20T04:14:21.266Z,135
2017-07-20T04:15:21.275Z,130
2017-07-20T04:16:21.587Z,130
2017-07-20T04:17:21.570Z,130
2017-07-20T04:18:21.554Z,130
2017-07-20T04:19:21.568Z,125
2017-07-20T04:20:21.563Z,125
2017-07-20T04:21:21.861Z,125
2017-07-20T04:22:21.539Z,125
2017-07-20T04:23:21.556Z,130
2017-07-20T04:24:21.555Z,135
2017-07-20T04:25:21.565Z,130
2017-07-20T04:26:21.817Z,140
2017-07-20T04:27:21.544Z,145
2017-07-20T04:28:21.553Z,145
2017-07-20T04:29:21.541Z,140
2017-07-20T04:30:21.521Z,120
2017-07-20T04:31:21.179Z,120
2017-07-20T04:32:21.226Z,130
2017-07-20T04:33:21.248Z,140
2017-07-20T04:34:21.539Z,140
2017-07-20T04:35:21.238Z,130
2017-07-20T04:36:21.488Z,140
2017-07-20T04:37:21.549Z,145
2017-07-20T04:38:21.521Z,155
2017-07-20T04:39:21.531Z,145
2017-07-20T04:40:21.525Z,150
2017-07-20T04:41:21.855Z,180
2017-07-20T04:42:21.509Z,210
2017-07-20T04:43:21.557Z,220
2017-07-20T04:44:21.527Z,240
2017-07-20T04:45:21.223Z,265
2017-07-20T04:46:21.547Z,305
2017-07-20T04:47:21.204Z,355
2017-07-20T04:48:21.514Z,395
2017-07-20T04:49:20.908Z,425
2017-07-20T04:50:21.518Z,435
2017-07-20T04:51:21.806Z,440
2017-07-20T04:52:21.527Z,450
2017-07-20T04:53:21.563Z,450
2017-07-20T04:54:21.506Z,460
2017-07-20T04:55:21.224Z,470
2017-07-20T04:56:21.783Z,485
2017-07-20T04:57:21.211Z,505
2017-07-20T04:58:21.224Z,505
2017-07-20T04:59:21.237Z,510
2017-07-20T05:00:21.227Z,515
2017-07-20T05:01:21.859Z,515
2017-07-20T05:02:21.219Z,520
2017-07-20T05:03:21.555Z,530
2017-07-20T05:04:21.226Z,545
2017-07-20T05:05:21.560Z,565
2017-07-20T05:06:21.849Z,575
2017-07-20T05:07:21.280Z,585
2017-07-20T05:08:21.268Z,590
2017-07-20T05:09:21.584Z,595
2017-07-20T05:10:21.266Z,605
2017-07-20T05:11:21.834Z,610
2017-07-20T05:12:21.600Z,630
2017-07-20T05:13:21.309Z,635
2017-07-20T05:14:21.315Z,645
2017-07-20T05:15:20.997Z,645
2017-07-20T05:16:21.302Z,650
2017-07-20T05:17:21.336Z,655
2017-07-20T05:18:21.341Z,660
2017-07-20T05:19:21.334Z,665
2017-07-20T05:20:21.359Z,660
2017-07-20T05:21:21.301Z,660
2017-07-20T05:22:21.669Z,665
2017-07-20T05:23:21.075Z,615
2017-07-20T05:24:21.698Z,650
2017-07-20T05:25:21.395Z,670
2017-07-20T05:26:21.767Z,695
2017-07-20T05:27:21.712Z,645
2017-07-20T05:28:21.724Z,640
2017-07-20T05:29:21.761Z,565
2017-07-20T05:30:21.477Z,660
2017-07-20T05:31:22.001Z,620
2017-07-20T05:32:21.139Z,640
2017-07-20T05:33:21.767Z,730
2017-07-20T05:34:21.801Z,745
2017-07-20T05:35:21.797Z,740
2017-07-20T05:36:22.082Z,745
2017-07-20T05:37:21.196Z,755
2017-07-20T05:38:21.865Z,770
2017-07-20T05:39:21.839Z,780
2017-07-20T05:40:21.853Z,800
2017-07-20T05:41:21.836Z,800
2017-07-20T05:42:21.881Z,800
2017-07-20T05:43:21.894Z,800
2017-07-20T05:44:21.885Z,785
2017-07-20T05:45:21.581Z,790
2017-07-20T05:46:22.286Z,805
2017-07-20T05:47:21.612Z,825
2017-07-20T05:48:21.616Z,830
2017-07-20T05:49:21.930Z,840
2017-07-20T05:50:21.981Z,870
2017-07-20T05:51:21.979Z,885
2017-07-20T05:52:22.235Z,895
2017-07-20T05:53:21.978Z,895
2017-07-20T05:54:21.712Z,900
2017-07-20T05:55:22.000Z,895
2017-07-20T05:56:21.716Z,895
2017-07-20T05:57:22.325Z,890
2017-07-20T05:58:22.069Z,900
2017-07-20T05:59:22.066Z,900
2017-07-20T06:00:22.072Z,905
2017-07-20T06:01:22.066Z,915
2017-07-20T06:02:22.081Z,915
2017-07-20T06:03:21.809Z,920
2017-07-20T06:04:22.129Z,930
2017-07-20T06:05:21.829Z,950
2017-07-20T06:06:22.132Z,960
2017-07-20T06:07:22.517Z,965
2017-07-20T06:08:21.847Z,865
2017-07-20T06:09:21.886Z,975
2017-07-20T06:10:22.199Z,970
2017-07-20T06:11:22.219Z,975
2017-07-20T06:12:22.505Z,980
2017-07-20T06:13:22.240Z,980
2017-07-20T06:14:22.269Z,980
2017-07-20T06:15:22.268Z,970
2017-07-20T06:16:22.272Z,970
2017-07-20T06:17:22.588Z,975
2017-07-20T06:18:22.273Z,980
2017-07-20T06:19:22.315Z,990
2017-07-20T06:20:22.310Z,995
2017-07-20T06:21:22.364Z,1010
2017-07-20T06:22:22.694Z,1030
2017-07-20T06:23:22.370Z,1030
2017-07-20T06:24:22.064Z,1045
2017-07-20T06:25:22.396Z,1040
2017-07-20T06:26:22.408Z,1050
2017-07-20T06:27:22.689Z,1070
2017-07-20T06:28:22.427Z,1065
2017-07-20T06:29:22.461Z,1070
2017-07-20T06:30:22.129Z,1075
2017-07-20T06:31:22.180Z,1090
2017-07-20T06:32:22.728Z,1090
2017-07-20T06:33:22.509Z,1105
2017-07-20T06:34:22.211Z,1115
2017-07-20T06:35:22.212Z,1125
2017-07-20T06:36:22.540Z,1130
2017-07-20T06:37:22.866Z,1145
2017-07-20T06:38:22.550Z,1150
2017-07-20T06:39:22.287Z,1155
2017-07-20T06:40:22.569Z,1160
2017-07-20T06:41:22.618Z,1165
2017-07-20T06:42:22.910Z,1175
2017-07-20T06:43:22.345Z,1185
2017-07-20T06:44:22.657Z,1200
2017-07-20T06:45:22.375Z,1225
2017-07-20T06:46:22.681Z,1230
2017-07-20T06:47:22.925Z,1260
2017-07-20T06:48:22.697Z,1280
2017-07-20T06:49:22.409Z,1290
2017-07-20T06:50:22.755Z,1320
2017-07-20T06:51:22.447Z,1310
2017-07-20T06:52:22.766Z,1335
2017-07-20T06:53:22.471Z,1335
2017-07-20T06:54:22.510Z,1325
2017-07-20T06:55:22.819Z,1325
2017-07-20T06:56:22.843Z,1255
2017-07-20T06:57:22.874Z,895
2017-07-20T06:58:22.249Z,1265
2017-07-20T06:59:22.861Z,1435
2017-07-20T07:00:22.588Z,1445
2017-07-20T07:01:22.584Z,1520
2017-07-20T07:02:22.967Z,1515
2017-07-20T07:03:22.951Z,1505
2017-07-20T07:04:22.948Z,1495
2017-07-20T07:05:25.964Z,1235
2017-07-20T07:06:23.001Z,675
2017-07-20T07:07:26.830Z,590
2017-07-20T07:09:23.055Z,555
2017-07-20T07:10:23.047Z,685
2017-07-20T07:11:23.059Z,725
2017-07-20T07:12:23.075Z,685
2017-07-20T07:13:23.345Z,725
2017-07-20T07:14:23.112Z,735
2017-07-20T07:15:22.805Z,715
2017-07-20T07:16:23.122Z,670
2017-07-20T07:17:23.120Z,795
2017-07-20T07:18:23.107Z,765
2017-07-20T07:19:22.860Z,910
2017-07-20T07:20:22.263Z,980
2017-07-20T07:21:23.188Z,1215
2017-07-20T07:22:23.222Z,1135
2017-07-20T07:23:23.509Z,1210
2017-07-20T07:24:23.266Z,1360
2017-07-20T07:25:22.941Z,1245
2017-07-20T07:26:22.966Z,845
2017-07-20T07:27:23.264Z,610
2017-07-20T07:28:23.539Z,565
2017-07-20T07:29:23.284Z,580
2017-07-20T07:30:23.316Z,620
2017-07-20T07:31:23.326Z,650
2017-07-20T07:32:23.333Z,820
2017-07-20T07:33:23.330Z,775
2017-07-20T07:34:23.368Z,710
2017-07-20T07:35:23.367Z,735
2017-07-20T07:36:23.401Z,775
2017-07-20T07:37:23.384Z,720
2017-07-20T07:38:23.633Z,710
2017-07-20T07:39:23.081Z,675
2017-07-20T07:40:23.431Z,830
2017-07-20T07:41:23.412Z,835
2017-07-20T07:42:23.452Z,775
2017-07-20T07:43:23.083Z,800
2017-07-20T07:44:23.460Z,855
2017-07-20T07:45:23.160Z,1035
2017-07-20T07:46:23.486Z,1240
2017-07-20T07:47:23.485Z,1365
2017-07-20T07:48:23.753Z,1345
2017-07-20T07:49:23.524Z,1475
2017-07-20T07:50:23.531Z,1575
2017-07-20T07:51:23.545Z,1560
2017-07-20T07:52:23.535Z,1660
2017-07-20T07:53:23.817Z,1745
2017-07-20T07:54:23.248Z,1795
2017-07-20T07:55:23.565Z,1805
2017-07-20T07:56:22.990Z,1750
2017-07-20T07:57:23.599Z,1725
2017-07-20T07:58:23.930Z,1730
2017-07-20T07:59:23.621Z,1920
2017-07-20T08:00:23.341Z,1805
2017-07-20T08:01:23.637Z,1735
2017-07-20T08:02:23.651Z,1575
2017-07-20T08:03:23.929Z,1625
2017-07-20T08:04:23.079Z,1750
2017-07-20T08:05:23.711Z,1775
2017-07-20T08:06:23.409Z,1760
2017-07-20T08:07:23.731Z,1870
2017-07-20T08:08:24.058Z,1630
2017-07-20T08:09:23.143Z,1485
2017-07-20T08:10:23.790Z,960
2017-07-20T08:11:23.492Z,605
2017-07-20T08:12:23.810Z,520
2017-07-20T08:13:24.046Z,665
2017-07-20T08:14:23.838Z,1065
2017-07-20T08:15:23.518Z,1145
2017-07-20T08:16:22.940Z,1560
2017-07-20T08:17:23.850Z,1645
2017-07-20T08:18:24.116Z,1540
2017-07-20T08:19:23.897Z,1445
2017-07-20T08:20:23.907Z,1610
2017-07-20T08:21:23.904Z,1750
2017-07-20T08:22:23.941Z,1740
2017-07-20T08:23:24.200Z,1760
2017-07-20T08:24:23.980Z,1735
2017-07-20T08:25:23.647Z,1910
2017-07-20T08:26:23.683Z,1895
2017-07-20T08:27:23.998Z,1920
2017-07-20T08:28:24.287Z,1915
2017-07-20T08:29:24.012Z,1915
2017-07-20T08:30:24.052Z,1910
2017-07-20T08:31:24.051Z,1910
2017-07-20T08:32:24.086Z,1915
2017-07-20T08:33:24.308Z,1910
2017-07-20T08:34:24.084Z,1910
2017-07-20T08:35:24.112Z,1900
2017-07-20T08:36:24.139Z,1900
2017-07-20T08:37:24.164Z,1915
2017-07-20T08:38:24.442Z,1925
2017-07-20T08:39:25.379Z,1945
2017-07-20T08:40:24.170Z,1945
2017-07-20T08:41:24.209Z,1955
2017-07-20T08:43:24.196Z,1965
2017-07-20T08:44:23.944Z,1980
2017-07-20T08:45:23.947Z,1965
2017-07-20T08:46:24.267Z,1945
2017-07-20T08:47:23.997Z,1950
2017-07-20T08:48:24.239Z,1980
2017-07-20T08:49:24.305Z,1960
2017-07-20T08:50:24.018Z,1955
2017-07-20T08:51:24.055Z,1865
2017-07-20T08:52:24.053Z,1870
2017-07-20T08:53:24.655Z,1895
2017-07-20T08:54:24.076Z,1955
2017-07-20T08:55:24.115Z,1920
2017-07-20T08:56:24.113Z,1675
2017-07-20T08:57:24.127Z,1000
2017-07-20T08:58:24.402Z,450
2017-07-20T08:59:24.486Z,415
2017-07-20T09:00:24.507Z,410
2017-07-20T09:01:24.189Z,400
2017-07-20T09:02:24.205Z,395
2017-07-20T09:03:24.780Z,390
2017-07-20T09:04:24.254Z,385
2017-07-20T09:05:24.252Z,380
2017-07-20T09:06:24.281Z,380
2017-07-20T09:07:23.958Z,375
2017-07-20T09:08:24.953Z,380
2017-07-20T09:09:24.304Z,375
2017-07-20T09:10:24.309Z,370
2017-07-20T09:11:24.628Z,375
2017-07-20T09:12:24.640Z,370
2017-07-20T09:13:24.913Z,365
2017-07-20T09:14:24.677Z,365
2017-07-20T09:15:24.676Z,365
2017-07-20T09:16:24.696Z,365
2017-07-20T09:17:24.685Z,365
2017-07-20T09:18:24.684Z,365
2017-07-20T09:19:24.686Z,370
2017-07-20T09:20:24.416Z,370
2017-07-20T09:21:24.428Z,370
2017-07-20T09:22:24.765Z,365
2017-07-20T09:23:24.989Z,360
2017-07-20T09:24:24.760Z,350
2017-07-20T09:25:24.733Z,350
2017-07-20T09:26:24.791Z,345
2017-07-20T09:27:24.772Z,345
2017-07-20T09:28:24.810Z,345
2017-07-20T09:29:24.791Z,345
2017-07-20T09:30:24.809Z,345
2017-07-20T09:31:24.799Z,345
2017-07-20T09:32:24.805Z,350
2017-07-20T09:33:25.065Z,360
2017-07-20T09:34:24.852Z,365
2017-07-20T09:35:24.546Z,365
2017-07-20T09:36:24.846Z,365
2017-07-20T09:37:24.849Z,365
2017-07-20T09:38:25.155Z,365
2017-07-20T09:39:24.883Z,360
2017-07-20T09:40:24.593Z,360
2017-07-20T09:41:24.565Z,355
2017-07-20T09:42:24.583Z,355
2017-07-20T09:43:25.125Z,355
2017-07-20T09:44:24.923Z,355
2017-07-20T09:45:24.619Z,350
2017-07-20T09:46:24.928Z,345
2017-07-20T09:47:24.911Z,345
2017-07-20T09:48:24.881Z,350
2017-07-20T09:49:24.621Z,345
2017-07-20T09:50:24.958Z,340
2017-07-20T09:51:24.964Z,340
2017-07-20T09:52:24.965Z,340
2017-07-20T09:53:25.273Z,340
2017-07-20T09:54:24.683Z,340
2017-07-20T09:55:24.671Z,340
2017-07-20T09:56:24.676Z,335
2017-07-20T09:57:25.002Z,340
2017-07-20T09:58:25.250Z,335
2017-07-20T09:59:25.000Z,335
2017-07-20T10:00:25.026Z,335
2017-07-20T10:01:25.017Z,335
2017-07-20T10:02:25.039Z,335
2017-07-20T10:03:25.281Z,330
2017-07-20T10:04:25.056Z,330
2017-07-20T10:05:24.441Z,330
2017-07-20T10:06:24.748Z,335
2017-07-20T10:07:24.749Z,330
2017-07-20T10:08:25.426Z,365
2017-07-20T10:09:25.088Z,400
2017-07-20T10:10:24.791Z,435
2017-07-20T10:11:24.753Z,435
2017-07-20T10:12:24.786Z,420
2017-07-20T10:13:25.389Z,380
2017-07-20T10:14:24.794Z,355
2017-07-20T10:15:24.501Z,335
2017-07-20T10:16:25.142Z,330
2017-07-20T10:17:24.827Z,335
2017-07-20T10:18:25.090Z,350
2017-07-20T10:19:24.819Z,350
2017-07-20T10:20:24.829Z,345
2017-07-20T10:21:24.845Z,360
2017-07-20T10:22:24.857Z,355
2017-07-20T10:23:25.121Z,340
2017-07-20T10:24:25.164Z,355
2017-07-20T10:25:24.908Z,380
2017-07-20T10:26:24.558Z,395
2017-07-20T10:27:25.214Z,385
2017-07-20T10:28:25.143Z,375
2017-07-20T10:29:24.898Z,385
2017-07-20T10:30:24.923Z,385
2017-07-20T10:31:24.906Z,375
2017-07-20T10:32:24.963Z,390
2017-07-20T10:33:25.493Z,400
2017-07-20T10:34:25.239Z,385
2017-07-20T10:35:24.932Z,380
2017-07-20T10:36:25.237Z,390
2017-07-20T10:37:24.948Z,410
2017-07-20T10:38:25.214Z,460
2017-07-20T10:39:25.282Z,500
2017-07-20T10:40:24.967Z,485
2017-07-20T10:41:25.292Z,435
2017-07-20T10:42:25.281Z,415
2017-07-20T10:43:25.360Z,365
2017-07-20T10:44:25.290Z,340
2017-07-20T10:45:25.336Z,340
2017-07-20T10:46:25.319Z,330
2017-07-20T10:47:25.030Z,375
2017-07-20T10:48:25.624Z,415
2017-07-20T10:49:25.051Z,445
2017-07-20T10:50:25.031Z,425
2017-07-20T10:51:25.064Z,375
2017-07-20T10:52:25.373Z,345
2017-07-20T10:53:25.621Z,335
2017-07-20T10:54:25.066Z,335
2017-07-20T10:55:25.083Z,340
2017-07-20T10:56:25.065Z,365
2017-07-20T10:57:24.775Z,375
2017-07-20T10:58:25.690Z,375
2017-07-20T10:59:25.432Z,335
2017-07-20T11:00:25.114Z,305
2017-07-20T11:01:25.139Z,295
2017-07-20T11:02:25.436Z,285
2017-07-20T11:03:25.806Z,280
2017-07-20T11:04:25.449Z,275
2017-07-20T11:05:25.459Z,275
2017-07-20T11:06:25.150Z,265
2017-07-20T11:07:25.489Z,260
2017-07-20T11:08:25.782Z,270
2017-07-20T11:09:25.175Z,300
2017-07-20T11:10:25.180Z,315
2017-07-20T11:11:25.472Z,310
2017-07-20T11:12:25.519Z,315
2017-07-20T11:13:25.779Z,310
2017-07-20T11:14:25.533Z,300
2017-07-20T11:15:25.209Z,300
2017-07-20T11:16:25.525Z,290
2017-07-20T11:17:25.525Z,285
2017-07-20T11:18:25.906Z,280
2017-07-20T11:19:25.544Z,275
2017-07-20T11:20:25.257Z,270
2017-07-20T11:21:25.570Z,270
2017-07-20T11:22:25.551Z,270
2017-07-20T11:23:25.585Z,275
2017-07-20T11:24:25.274Z,275
2017-07-20T11:25:25.614Z,275
2017-07-20T11:26:25.587Z,280
2017-07-20T11:27:25.606Z,280
2017-07-20T11:28:25.662Z,280
2017-07-20T11:29:25.649Z,275
2017-07-20T11:30:25.636Z,275
2017-07-20T11:31:25.620Z,275
2017-07-20T11:32:25.649Z,275
2017-07-20T11:33:25.971Z,270
2017-07-20T11:34:25.646Z,270
2017-07-20T11:35:25.370Z,265
2017-07-20T11:36:25.351Z,265
2017-07-20T11:37:25.382Z,265
2017-07-20T11:38:25.660Z,265
2017-07-20T11:39:25.712Z,265
2017-07-20T11:40:25.709Z,265
2017-07-20T11:41:25.698Z,265
2017-07-20T11:42:25.387Z,260
2017-07-20T11:43:25.662Z,260
2017-07-20T11:44:25.415Z,260
2017-07-20T11:45:25.721Z,260
2017-07-20T11:46:25.423Z,260
2017-07-20T11:47:25.762Z,260
2017-07-20T11:48:26.004Z,260
2017-07-20T11:49:25.770Z,255
2017-07-20T11:50:25.758Z,255
2017-07-20T11:51:25.785Z,250
2017-07-20T11:52:25.756Z,250
2017-07-20T11:53:25.823Z,250
2017-07-20T11:54:25.473Z,250
2017-07-20T11:55:25.519Z,250
2017-07-20T11:56:25.803Z,250
2017-07-20T11:57:25.820Z,250
2017-07-20T11:58:25.759Z,250
2017-07-20T11:59:25.821Z,250
2017-07-20T12:00:25.252Z,250
2017-07-20T12:01:25.844Z,255
2017-07-20T12:02:25.851Z,265
2017-07-20T12:03:26.138Z,275
2017-07-20T12:04:25.853Z,280
2017-07-20T12:05:25.855Z,275
2017-07-20T12:06:25.871Z,285
2017-07-20T12:07:25.849Z,310
2017-07-20T12:08:25.897Z,350
2017-07-20T12:09:25.514Z,370
2017-07-20T12:10:25.598Z,370
2017-07-20T12:11:25.588Z,380
2017-07-20T12:12:25.907Z,365
2017-07-20T12:13:25.918Z,350
2017-07-20T12:14:26.272Z,335
2017-07-20T12:15:25.916Z,325
2017-07-20T12:16:25.965Z,305
2017-07-20T12:17:25.939Z,285
2017-07-20T12:18:25.642Z,285
2017-07-20T12:19:25.900Z,285
2017-07-20T12:20:25.976Z,300
2017-07-20T12:21:25.952Z,320
2017-07-20T12:22:25.988Z,340
2017-07-20T12:23:25.967Z,340
2017-07-20T12:24:25.956Z,330
2017-07-20T12:25:26.013Z,320
2017-07-20T12:26:26.017Z,310
2017-07-20T12:27:25.388Z,305
2017-07-20T12:28:26.031Z,310
2017-07-20T12:29:26.015Z,320
2017-07-20T12:30:26.055Z,330
2017-07-20T12:31:26.064Z,325
2017-07-20T12:32:26.058Z,310
2017-07-20T12:33:26.062Z,300
2017-07-20T12:34:26.113Z,300
2017-07-20T12:35:26.103Z,300
2017-07-20T12:36:26.082Z,300
2017-07-20T12:37:26.088Z,305
2017-07-20T12:38:25.799Z,310
2017-07-20T12:39:26.390Z,325
2017-07-20T12:40:26.118Z,325
2017-07-20T12:41:25.804Z,325
2017-07-20T12:42:25.819Z,330
2017-07-20T12:43:25.801Z,340
2017-07-20T12:44:26.422Z,355
2017-07-20T12:45:26.148Z,380
2017-07-20T12:46:26.160Z,400
2017-07-20T12:47:26.185Z,405
2017-07-20T12:48:26.153Z,420
2017-07-20T12:49:26.161Z,410
2017-07-20T12:50:26.228Z,390
2017-07-20T12:51:25.902Z,390
2017-07-20T12:52:26.176Z,400
2017-07-20T12:53:25.911Z,410
2017-07-20T12:54:26.510Z,415
2017-07-20T12:55:26.233Z,435
2017-07-20T12:56:26.218Z,420
2017-07-20T12:57:26.242Z,415
2017-07-20T12:58:26.228Z,420
2017-07-20T12:59:26.519Z,420
2017-07-20T13:00:26.284Z,425
2017-07-20T13:01:26.261Z,420
2017-07-20T13:02:26.272Z,420
2017-07-20T13:03:25.996Z,435
2017-07-20T13:04:26.549Z,440
2017-07-20T13:05:26.306Z,445
2017-07-20T13:06:26.310Z,445
2017-07-20T13:07:26.018Z,465
2017-07-20T13:08:26.025Z,470
2017-07-20T13:09:26.668Z,465
2017-07-20T13:10:26.320Z,465
2017-07-20T13:11:26.366Z,490
2017-07-20T13:12:26.328Z,520
2017-07-20T13:13:26.383Z,540
2017-07-20T13:14:26.295Z,540
2017-07-20T13:15:26.412Z,525
2017-07-20T13:16:26.074Z,505
2017-07-20T13:17:26.084Z,475
2017-07-20T13:18:26.400Z,445
2017-07-20T13:19:26.704Z,415
2017-07-20T13:20:26.418Z,385
2017-07-20T13:21:26.431Z,365
2017-07-20T13:22:26.445Z,360
2017-07-20T13:23:26.434Z,355
2017-07-20T13:24:26.799Z,350
2017-07-20T13:25:26.451Z,345
2017-07-20T13:26:26.473Z,335
2017-07-20T13:27:26.449Z,330
2017-07-20T13:28:26.495Z,320
2017-07-20T13:29:26.554Z,315
2017-07-20T13:30:26.510Z,315
2017-07-20T13:31:26.527Z,310
2017-07-20T13:32:26.216Z,310
2017-07-20T13:33:25.902Z,300
2017-07-20T13:34:26.764Z,305
2017-07-20T13:35:26.538Z,310
2017-07-20T13:36:26.253Z,330
2017-07-20T13:37:26.252Z,345
2017-07-20T13:38:26.568Z,365
2017-07-20T13:39:26.811Z,410
2017-07-20T13:40:26.286Z,475
2017-07-20T13:41:26.264Z,520
2017-07-20T13:42:26.306Z,545
2017-07-20T13:43:26.283Z,540
2017-07-20T13:44:26.249Z,535
2017-07-20T13:45:26.325Z,540
2017-07-20T13:46:26.329Z,560
2017-07-20T13:47:26.312Z,565
2017-07-20T13:48:26.641Z,525
2017-07-20T13:49:26.888Z,500
2017-07-20T13:50:26.349Z,445
2017-07-20T13:51:26.696Z,415
2017-07-20T13:52:26.683Z,385
2017-07-20T13:53:26.382Z,360
2017-07-20T13:54:26.331Z,350
2017-07-20T13:55:26.686Z,345
2017-07-20T13:56:26.711Z,345
2017-07-20T13:57:26.694Z,355
2017-07-20T13:58:26.731Z,365
2017-07-20T13:59:27.083Z,370